sensor_id;sensor_type;location;lat;lon;timestamp;P1;durP1;ratioP1;P2;durP2;ratioP2
44147;SDS011;29810;55.848;37.368;2022-08-18T00:02:47;19.37;;;11.12;;
44147;SDS011;29810;55.848;37.368;2022-08-18T00:05:48;23.73;;;11.68;;
44147;SDS011;29810;55.848;37.368;2022-08-18T00:08:50;20.80;;;11.12;;
44147;SDS011;29810;55.848;37.368;2022-08-18T00:11:52;16.98;;;10.77;;
44147;SDS011;29810;55.848;37.368;2022-08-18T00:14:54;19.15;;;11.38;;
44147;SDS011;29810;55.848;37.368;2022-08-18T00:17:56;17.58;;;10.43;;
44147;SDS011;29810;55.848;37.368;2022-08-18T00:20:58;18.27;;;10.68;;
44147;SDS011;29810;55.848;37.368;2022-08-18T00:24:00;17.30;;;11.73;;
44147;SDS011;29810;55.848;37.368;2022-08-18T00:27:01;20.50;;;10.98;;
44147;SDS011;29810;55.848;37.368;2022-08-18T00:30:04;15.98;;;10.90;;
44147;SDS011;29810;55.848;37.368;2022-08-18T00:33:09;17.00;;;10.90;;
44147;SDS011;29810;55.848;37.368;2022-08-18T00:36:10;16.85;;;10.75;;
44147;SDS011;29810;55.848;37.368;2022-08-18T00:39:12;19.00;;;11.23;;
44147;SDS011;29810;55.848;37.368;2022-08-18T00:42:25;21.80;;;10.30;;
44147;SDS011;29810;55.848;37.368;2022-08-18T00:45:33;16.17;;;10.57;;
44147;SDS011;29810;55.848;37.368;2022-08-18T00:48:38;22.90;;;11.32;;
44147;SDS011;29810;55.848;37.368;2022-08-18T00:51:43;20.80;;;10.80;;
44147;SDS011;29810;55.848;37.368;2022-08-18T00:54:48;16.10;;;10.63;;
44147;SDS011;29810;55.848;37.368;2022-08-18T00:57:53;18.73;;;11.18;;
44147;SDS011;29810;55.848;37.368;2022-08-18T01:01:02;17.02;;;10.68;;
44147;SDS011;29810;55.848;37.368;2022-08-18T01:04:07;14.60;;;10.63;;
44147;SDS011;29810;55.848;37.368;2022-08-18T01:07:15;17.55;;;10.75;;
44147;SDS011;29810;55.848;37.368;2022-08-18T01:10:20;18.98;;;10.48;;
44147;SDS011;29810;55.848;37.368;2022-08-18T01:13:25;13.25;;;10.40;;
44147;SDS011;29810;55.848;37.368;2022-08-18T01:16:29;16.05;;;10.77;;
44147;SDS011;29810;55.848;37.368;2022-08-18T01:19:49;17.05;;;10.05;;
44147;SDS011;29810;55.848;37.368;2022-08-18T01:23:11;16.58;;;10.20;;
44147;SDS011;29810;55.848;37.368;2022-08-18T01:26:16;18.65;;;10.20;;
44147;SDS011;29810;55.848;37.368;2022-08-18T01:29:18;13.50;;;9.85;;
44147;SDS011;29810;55.848;37.368;2022-08-18T01:32:21;15.43;;;10.52;;
44147;SDS011;29810;55.848;37.368;2022-08-18T01:35:24;15.85;;;9.93;;
44147;SDS011;29810;55.848;37.368;2022-08-18T01:38:27;13.77;;;9.80;;
44147;SDS011;29810;55.848;37.368;2022-08-18T01:41:31;14.25;;;9.77;;
44147;SDS011;29810;55.848;37.368;2022-08-18T01:44:33;16.42;;;10.40;;
44147;SDS011;29810;55.848;37.368;2022-08-18T01:47:35;15.55;;;10.00;;
44147;SDS011;29810;55.848;37.368;2022-08-18T01:50:37;17.00;;;9.63;;
44147;SDS011;29810;55.848;37.368;2022-08-18T01:53:39;14.63;;;10.30;;
44147;SDS011;29810;55.848;37.368;2022-08-18T01:56:41;17.35;;;10.43;;
44147;SDS011;29810;55.848;37.368;2022-08-18T01:59:43;14.95;;;10.00;;
44147;SDS011;29810;55.848;37.368;2022-08-18T02:02:45;15.57;;;10.27;;
44147;SDS011;29810;55.848;37.368;2022-08-18T02:05:48;15.52;;;10.05;;
44147;SDS011;29810;55.848;37.368;2022-08-18T02:08:50;15.13;;;9.30;;
44147;SDS011;29810;55.848;37.368;2022-08-18T02:11:52;14.70;;;10.00;;
44147;SDS011;29810;55.848;37.368;2022-08-18T02:14:54;13.77;;;9.73;;
44147;SDS011;29810;55.848;37.368;2022-08-18T02:17:55;13.52;;;10.02;;
44147;SDS011;29810;55.848;37.368;2022-08-18T02:20:57;14.23;;;10.40;;
44147;SDS011;29810;55.848;37.368;2022-08-18T02:24:05;11.75;;;9.98;;
44147;SDS011;29810;55.848;37.368;2022-08-18T02:27:07;15.35;;;10.20;;
44147;SDS011;29810;55.848;37.368;2022-08-18T02:30:13;14.05;;;9.48;;
44147;SDS011;29810;55.848;37.368;2022-08-18T02:33:15;13.20;;;9.68;;
44147;SDS011;29810;55.848;37.368;2022-08-18T02:36:17;13.62;;;10.13;;
44147;SDS011;29810;55.848;37.368;2022-08-18T02:39:19;12.05;;;9.95;;
44147;SDS011;29810;55.848;37.368;2022-08-18T02:42:21;14.65;;;10.07;;
44147;SDS011;29810;55.848;37.368;2022-08-18T02:45:23;13.32;;;10.00;;
44147;SDS011;29810;55.848;37.368;2022-08-18T02:48:25;15.90;;;10.98;;
44147;SDS011;29810;55.848;37.368;2022-08-18T02:51:33;13.35;;;10.18;;
44147;SDS011;29810;55.848;37.368;2022-08-18T02:54:36;16.12;;;10.75;;
44147;SDS011;29810;55.848;37.368;2022-08-18T02:57:41;16.75;;;11.38;;
44147;SDS011;29810;55.848;37.368;2022-08-18T03:00:44;14.63;;;11.15;;
44147;SDS011;29810;55.848;37.368;2022-08-18T03:03:47;16.37;;;11.02;;
44147;SDS011;29810;55.848;37.368;2022-08-18T03:06:50;18.73;;;13.00;;
44147;SDS011;29810;55.848;37.368;2022-08-18T03:09:52;14.50;;;12.18;;
44147;SDS011;29810;55.848;37.368;2022-08-18T03:12:53;17.40;;;13.73;;
44147;SDS011;29810;55.848;37.368;2022-08-18T03:15:55;18.67;;;12.02;;
44147;SDS011;29810;55.848;37.368;2022-08-18T03:18:58;19.73;;;12.35;;
44147;SDS011;29810;55.848;37.368;2022-08-18T03:22:00;17.52;;;13.20;;
44147;SDS011;29810;55.848;37.368;2022-08-18T03:25:02;22.20;;;14.65;;
44147;SDS011;29810;55.848;37.368;2022-08-18T03:28:04;19.05;;;14.20;;
44147;SDS011;29810;55.848;37.368;2022-08-18T03:31:07;21.33;;;15.20;;
44147;SDS011;29810;55.848;37.368;2022-08-18T03:34:09;24.63;;;15.77;;
44147;SDS011;29810;55.848;37.368;2022-08-18T03:37:12;26.58;;;15.93;;
44147;SDS011;29810;55.848;37.368;2022-08-18T03:40:15;19.87;;;16.42;;
44147;SDS011;29810;55.848;37.368;2022-08-18T03:43:17;25.67;;;18.15;;
44147;SDS011;29810;55.848;37.368;2022-08-18T03:46:20;27.58;;;16.58;;
44147;SDS011;29810;55.848;37.368;2022-08-18T03:49:22;25.40;;;18.62;;
44147;SDS011;29810;55.848;37.368;2022-08-18T03:52:24;26.25;;;19.23;;
44147;SDS011;29810;55.848;37.368;2022-08-18T03:55:26;31.52;;;22.17;;
44147;SDS011;29810;55.848;37.368;2022-08-18T03:58:29;29.85;;;25.12;;
44147;SDS011;29810;55.848;37.368;2022-08-18T04:01:32;37.08;;;26.30;;
44147;SDS011;29810;55.848;37.368;2022-08-18T04:04:36;30.95;;;24.73;;
44147;SDS011;29810;55.848;37.368;2022-08-18T04:07:37;35.63;;;26.33;;
44147;SDS011;29810;55.848;37.368;2022-08-18T04:10:39;40.75;;;29.77;;
44147;SDS011;29810;55.848;37.368;2022-08-18T04:13:43;36.85;;;30.05;;
44147;SDS011;29810;55.848;37.368;2022-08-18T04:16:45;38.97;;;30.77;;
44147;SDS011;29810;55.848;37.368;2022-08-18T04:19:52;34.97;;;29.35;;
44147;SDS011;29810;55.848;37.368;2022-08-18T04:22:55;37.70;;;31.75;;
44147;SDS011;29810;55.848;37.368;2022-08-18T04:25:57;36.40;;;31.08;;
44147;SDS011;29810;55.848;37.368;2022-08-18T04:29:00;35.95;;;32.05;;
44147;SDS011;29810;55.848;37.368;2022-08-18T04:32:02;36.88;;;32.40;;
44147;SDS011;29810;55.848;37.368;2022-08-18T04:35:05;37.83;;;32.15;;
44147;SDS011;29810;55.848;37.368;2022-08-18T04:38:07;35.47;;;31.60;;
44147;SDS011;29810;55.848;37.368;2022-08-18T04:41:10;36.38;;;30.52;;
44147;SDS011;29810;55.848;37.368;2022-08-18T04:44:14;38.80;;;31.67;;
44147;SDS011;29810;55.848;37.368;2022-08-18T04:47:17;38.70;;;34.22;;
44147;SDS011;29810;55.848;37.368;2022-08-18T04:50:20;41.80;;;37.15;;
44147;SDS011;29810;55.848;37.368;2022-08-18T04:53:31;43.87;;;39.05;;
44147;SDS011;29810;55.848;37.368;2022-08-18T04:56:47;46.28;;;41.47;;
44147;SDS011;29810;55.848;37.368;2022-08-18T04:59:50;44.75;;;39.67;;
44147;SDS011;29810;55.848;37.368;2022-08-18T05:02:52;59.25;;;53.17;;
44147;SDS011;29810;55.848;37.368;2022-08-18T05:05:55;60.38;;;53.92;;
44147;SDS011;29810;55.848;37.368;2022-08-18T05:09:02;62.83;;;55.97;;
44147;SDS011;29810;55.848;37.368;2022-08-18T05:12:06;71.22;;;64.03;;
44147;SDS011;29810;55.848;37.368;2022-08-18T05:15:12;77.97;;;70.22;;
44147;SDS011;29810;55.848;37.368;2022-08-18T05:18:13;97.47;;;88.07;;
44147;SDS011;29810;55.848;37.368;2022-08-18T05:21:15;122.90;;;110.70;;
44147;SDS011;29810;55.848;37.368;2022-08-18T05:24:16;111.45;;;100.95;;
44147;SDS011;29810;55.848;37.368;2022-08-18T05:27:19;125.03;;;113.25;;
44147;SDS011;29810;55.848;37.368;2022-08-18T05:30:21;129.60;;;117.07;;
44147;SDS011;29810;55.848;37.368;2022-08-18T05:33:23;139.45;;;126.10;;
44147;SDS011;29810;55.848;37.368;2022-08-18T05:39:37;164.90;;;148.68;;
44147;SDS011;29810;55.848;37.368;2022-08-18T05:42:46;166.48;;;150.35;;
44147;SDS011;29810;55.848;37.368;2022-08-18T05:45:48;161.05;;;145.87;;
44147;SDS011;29810;55.848;37.368;2022-08-18T05:48:54;172.32;;;156.02;;
44147;SDS011;29810;55.848;37.368;2022-08-18T05:51:57;171.95;;;155.48;;
44147;SDS011;29810;55.848;37.368;2022-08-18T05:55:06;173.73;;;157.52;;
44147;SDS011;29810;55.848;37.368;2022-08-18T05:58:33;164.10;;;148.30;;
44147;SDS011;29810;55.848;37.368;2022-08-18T06:01:45;157.75;;;142.60;;
44147;SDS011;29810;55.848;37.368;2022-08-18T06:04:53;157.23;;;142.18;;
44147;SDS011;29810;55.848;37.368;2022-08-18T06:07:59;156.40;;;141.43;;
44147;SDS011;29810;55.848;37.368;2022-08-18T06:11:04;146.40;;;132.48;;
44147;SDS011;29810;55.848;37.368;2022-08-18T06:14:05;141.40;;;127.75;;
44147;SDS011;29810;55.848;37.368;2022-08-18T06:23:30;140.32;;;126.55;;
44147;SDS011;29810;55.848;37.368;2022-08-18T06:30:18;131.37;;;118.57;;
44147;SDS011;29810;55.848;37.368;2022-08-18T06:39:49;126.80;;;114.45;;
44147;SDS011;29810;55.848;37.368;2022-08-18T06:42:52;121.85;;;109.60;;
44147;SDS011;29810;55.848;37.368;2022-08-18T06:45:53;120.80;;;108.65;;
44147;SDS011;29810;55.848;37.368;2022-08-18T06:48:55;121.30;;;109.12;;
44147;SDS011;29810;55.848;37.368;2022-08-18T06:52:20;122.30;;;109.87;;
44147;SDS011;29810;55.848;37.368;2022-08-18T06:55:39;122.60;;;110.18;;
44147;SDS011;29810;55.848;37.368;2022-08-18T06:58:43;129.63;;;116.35;;
44147;SDS011;29810;55.848;37.368;2022-08-18T07:01:46;121.68;;;109.40;;
44147;SDS011;29810;55.848;37.368;2022-08-18T07:05:01;124.50;;;111.95;;
44147;SDS011;29810;55.848;37.368;2022-08-18T07:15:10;104.40;;;93.65;;
44147;SDS011;29810;55.848;37.368;2022-08-18T07:18:13;101.72;;;91.28;;
44147;SDS011;29810;55.848;37.368;2022-08-18T07:21:25;96.90;;;86.45;;
44147;SDS011;29810;55.848;37.368;2022-08-18T07:24:29;96.70;;;86.35;;
44147;SDS011;29810;55.848;37.368;2022-08-18T07:27:41;88.62;;;79.35;;
44147;SDS011;29810;55.848;37.368;2022-08-18T07:30:44;81.03;;;72.55;;
44147;SDS011;29810;55.848;37.368;2022-08-18T07:33:50;71.82;;;64.22;;
44147;SDS011;29810;55.848;37.368;2022-08-18T07:37:04;67.93;;;60.58;;
44147;SDS011;29810;55.848;37.368;2022-08-18T07:40:37;63.70;;;57.05;;
44147;SDS011;29810;55.848;37.368;2022-08-18T07:47:03;59.08;;;52.67;;
44147;SDS011;29810;55.848;37.368;2022-08-18T07:50:06;60.15;;;52.35;;
44147;SDS011;29810;55.848;37.368;2022-08-18T08:06:34;40.88;;;35.60;;
44147;SDS011;29810;55.848;37.368;2022-08-18T08:16:40;35.70;;;27.05;;
44147;SDS011;29810;55.848;37.368;2022-08-18T08:19:52;29.55;;;25.42;;
44147;SDS011;29810;55.848;37.368;2022-08-18T08:23:01;24.20;;;20.17;;
44147;SDS011;29810;55.848;37.368;2022-08-18T08:33:27;19.40;;;11.48;;
44147;SDS011;29810;55.848;37.368;2022-08-18T08:36:35;17.85;;;12.50;;
44147;SDS011;29810;55.848;37.368;2022-08-18T08:39:48;16.67;;;11.55;;
44147;SDS011;29810;55.848;37.368;2022-08-18T08:43:03;15.00;;;9.88;;
44147;SDS011;29810;55.848;37.368;2022-08-18T08:46:12;11.63;;;8.10;;
44147;SDS011;29810;55.848;37.368;2022-08-18T08:52:51;12.32;;;7.75;;
44147;SDS011;29810;55.848;37.368;2022-08-18T08:56:09;14.30;;;8.05;;
44147;SDS011;29810;55.848;37.368;2022-08-18T08:59:18;11.45;;;7.60;;
44147;SDS011;29810;55.848;37.368;2022-08-18T09:28:51;7.95;;;4.47;;
44147;SDS011;29810;55.848;37.368;2022-08-18T09:35:34;7.35;;;4.20;;
44147;SDS011;29810;55.848;37.368;2022-08-18T09:38:56;9.35;;;4.50;;
44147;SDS011;29810;55.848;37.368;2022-08-18T09:42:33;6.78;;;3.90;;
44147;SDS011;29810;55.848;37.368;2022-08-18T09:45:50;7.90;;;3.92;;
44147;SDS011;29810;55.848;37.368;2022-08-18T10:02:03;6.15;;;4.22;;
44147;SDS011;29810;55.848;37.368;2022-08-18T10:05:26;7.18;;;4.15;;
44147;SDS011;29810;55.848;37.368;2022-08-18T10:09:13;7.12;;;4.03;;
44147;SDS011;29810;55.848;37.368;2022-08-18T10:15:49;6.15;;;4.25;;
44147;SDS011;29810;55.848;37.368;2022-08-18T10:22:31;6.35;;;4.30;;
44147;SDS011;29810;55.848;37.368;2022-08-18T10:25:42;15.38;;;4.90;;
44147;SDS011;29810;55.848;37.368;2022-08-18T10:28:54;8.90;;;4.70;;
44147;SDS011;29810;55.848;37.368;2022-08-18T10:35:05;6.82;;;4.40;;
44147;SDS011;29810;55.848;37.368;2022-08-18T10:38:42;12.80;;;4.75;;
44147;SDS011;29810;55.848;37.368;2022-08-18T10:45:35;9.02;;;4.45;;
44147;SDS011;29810;55.848;37.368;2022-08-18T10:48:43;7.57;;;4.47;;
44147;SDS011;29810;55.848;37.368;2022-08-18T10:52:04;10.35;;;4.50;;
44147;SDS011;29810;55.848;37.368;2022-08-18T11:05:22;10.27;;;4.50;;
44147;SDS011;29810;55.848;37.368;2022-08-18T11:08:25;14.70;;;5.00;;
44147;SDS011;29810;55.848;37.368;2022-08-18T11:11:37;8.55;;;4.78;;
44147;SDS011;29810;55.848;37.368;2022-08-18T11:24:24;8.50;;;4.85;;
44147;SDS011;29810;55.848;37.368;2022-08-18T11:27:28;10.07;;;4.65;;
44147;SDS011;29810;55.848;37.368;2022-08-18T11:30:36;5.15;;;4.20;;
44147;SDS011;29810;55.848;37.368;2022-08-18T11:33:43;7.30;;;4.37;;
44147;SDS011;29810;55.848;37.368;2022-08-18T11:36:53;8.82;;;4.18;;
44147;SDS011;29810;55.848;37.368;2022-08-18T11:40:06;8.93;;;4.80;;
44147;SDS011;29810;55.848;37.368;2022-08-18T11:43:33;10.52;;;4.25;;
44147;SDS011;29810;55.848;37.368;2022-08-18T11:46:37;9.15;;;4.60;;
44147;SDS011;29810;55.848;37.368;2022-08-18T11:49:48;6.22;;;4.50;;
44147;SDS011;29810;55.848;37.368;2022-08-18T11:52:53;7.20;;;4.25;;
44147;SDS011;29810;55.848;37.368;2022-08-18T12:02:27;8.20;;;3.87;;
44147;SDS011;29810;55.848;37.368;2022-08-18T12:05:29;8.38;;;4.50;;
44147;SDS011;29810;55.848;37.368;2022-08-18T12:08:56;8.68;;;4.00;;
44147;SDS011;29810;55.848;37.368;2022-08-18T12:12:12;7.20;;;3.80;;
44147;SDS011;29810;55.848;37.368;2022-08-18T12:15:27;11.52;;;3.80;;
44147;SDS011;29810;55.848;37.368;2022-08-18T12:18:32;6.47;;;3.50;;
44147;SDS011;29810;55.848;37.368;2022-08-18T12:21:37;6.28;;;3.70;;
44147;SDS011;29810;55.848;37.368;2022-08-18T12:24:41;12.27;;;4.70;;
44147;SDS011;29810;55.848;37.368;2022-08-18T12:27:43;6.45;;;4.45;;
44147;SDS011;29810;55.848;37.368;2022-08-18T12:30:45;8.85;;;4.37;;
44147;SDS011;29810;55.848;37.368;2022-08-18T12:33:47;7.00;;;3.30;;
44147;SDS011;29810;55.848;37.368;2022-08-18T12:36:53;7.22;;;3.62;;
44147;SDS011;29810;55.848;37.368;2022-08-18T12:39:56;5.95;;;3.72;;
44147;SDS011;29810;55.848;37.368;2022-08-18T12:42:59;7.28;;;3.47;;
44147;SDS011;29810;55.848;37.368;2022-08-18T12:46:00;7.62;;;3.55;;
44147;SDS011;29810;55.848;37.368;2022-08-18T12:49:03;6.53;;;3.30;;
44147;SDS011;29810;55.848;37.368;2022-08-18T12:52:05;4.82;;;3.20;;
44147;SDS011;29810;55.848;37.368;2022-08-18T12:55:08;11.35;;;3.80;;
44147;SDS011;29810;55.848;37.368;2022-08-18T12:58:11;7.60;;;3.65;;
44147;SDS011;29810;55.848;37.368;2022-08-18T13:01:13;6.07;;;3.60;;
44147;SDS011;29810;55.848;37.368;2022-08-18T13:04:14;6.03;;;3.08;;
44147;SDS011;29810;55.848;37.368;2022-08-18T13:07:16;6.65;;;3.40;;
44147;SDS011;29810;55.848;37.368;2022-08-18T13:10:18;6.18;;;3.33;;
44147;SDS011;29810;55.848;37.368;2022-08-18T13:13:20;8.02;;;3.30;;
44147;SDS011;29810;55.848;37.368;2022-08-18T13:16:22;6.65;;;3.20;;
44147;SDS011;29810;55.848;37.368;2022-08-18T13:19:25;7.85;;;3.10;;
44147;SDS011;29810;55.848;37.368;2022-08-18T13:22:26;5.90;;;3.20;;
44147;SDS011;29810;55.848;37.368;2022-08-18T13:25:29;6.95;;;3.03;;
44147;SDS011;29810;55.848;37.368;2022-08-18T13:28:32;6.37;;;3.12;;
44147;SDS011;29810;55.848;37.368;2022-08-18T13:31:37;5.28;;;2.90;;
44147;SDS011;29810;55.848;37.368;2022-08-18T13:34:38;5.18;;;2.70;;
44147;SDS011;29810;55.848;37.368;2022-08-18T13:37:40;6.22;;;2.45;;
44147;SDS011;29810;55.848;37.368;2022-08-18T13:40:41;6.10;;;2.80;;
44147;SDS011;29810;55.848;37.368;2022-08-18T13:43:43;4.82;;;2.70;;
44147;SDS011;29810;55.848;37.368;2022-08-18T13:46:46;5.40;;;2.60;;
44147;SDS011;29810;55.848;37.368;2022-08-18T13:49:49;7.85;;;2.78;;
44147;SDS011;29810;55.848;37.368;2022-08-18T13:52:51;6.18;;;2.80;;
44147;SDS011;29810;55.848;37.368;2022-08-18T13:55:54;6.18;;;2.70;;
44147;SDS011;29810;55.848;37.368;2022-08-18T13:58:59;5.27;;;2.47;;
44147;SDS011;29810;55.848;37.368;2022-08-18T14:02:02;8.23;;;3.25;;
44147;SDS011;29810;55.848;37.368;2022-08-18T14:05:08;6.10;;;2.80;;
44147;SDS011;29810;55.848;37.368;2022-08-18T14:08:10;5.68;;;2.90;;
44147;SDS011;29810;55.848;37.368;2022-08-18T14:11:12;6.93;;;3.03;;
44147;SDS011;29810;55.848;37.368;2022-08-18T14:14:14;4.15;;;3.08;;
44147;SDS011;29810;55.848;37.368;2022-08-18T14:17:16;7.07;;;3.25;;
44147;SDS011;29810;55.848;37.368;2022-08-18T14:20:17;6.62;;;3.78;;
44147;SDS011;29810;55.848;37.368;2022-08-18T14:23:38;6.60;;;2.90;;
44147;SDS011;29810;55.848;37.368;2022-08-18T14:26:58;4.53;;;2.70;;
44147;SDS011;29810;55.848;37.368;2022-08-18T14:30:04;4.68;;;3.10;;
44147;SDS011;29810;55.848;37.368;2022-08-18T14:33:10;5.93;;;2.90;;
44147;SDS011;29810;55.848;37.368;2022-08-18T14:36:15;5.03;;;2.87;;
44147;SDS011;29810;55.848;37.368;2022-08-18T14:39:17;5.62;;;2.95;;
44147;SDS011;29810;55.848;37.368;2022-08-18T14:42:18;5.37;;;2.70;;
44147;SDS011;29810;55.848;37.368;2022-08-18T14:45:22;4.03;;;2.60;;
44147;SDS011;29810;55.848;37.368;2022-08-18T14:48:25;6.07;;;3.12;;
44147;SDS011;29810;55.848;37.368;2022-08-18T14:51:27;7.50;;;2.97;;
44147;SDS011;29810;55.848;37.368;2022-08-18T14:54:29;6.03;;;3.10;;
44147;SDS011;29810;55.848;37.368;2022-08-18T14:57:31;6.03;;;3.10;;
44147;SDS011;29810;55.848;37.368;2022-08-18T15:00:33;5.60;;;3.15;;
44147;SDS011;29810;55.848;37.368;2022-08-18T15:03:35;4.40;;;2.95;;
44147;SDS011;29810;55.848;37.368;2022-08-18T15:06:37;5.10;;;3.50;;
44147;SDS011;29810;55.848;37.368;2022-08-18T15:09:40;7.00;;;3.40;;
44147;SDS011;29810;55.848;37.368;2022-08-18T15:12:42;7.10;;;3.15;;
44147;SDS011;29810;55.848;37.368;2022-08-18T15:15:44;9.32;;;3.40;;
44147;SDS011;29810;55.848;37.368;2022-08-18T15:18:45;5.62;;;3.35;;
44147;SDS011;29810;55.848;37.368;2022-08-18T15:21:47;6.07;;;3.60;;
44147;SDS011;29810;55.848;37.368;2022-08-18T15:25:08;5.93;;;3.70;;
44147;SDS011;29810;55.848;37.368;2022-08-18T15:28:28;6.00;;;3.90;;
44147;SDS011;29810;55.848;37.368;2022-08-18T15:31:29;6.50;;;4.40;;
44147;SDS011;29810;55.848;37.368;2022-08-18T15:34:33;7.50;;;4.28;;
44147;SDS011;29810;55.848;37.368;2022-08-18T15:37:36;9.18;;;4.47;;
44147;SDS011;29810;55.848;37.368;2022-08-18T15:40:45;8.55;;;4.37;;
44147;SDS011;29810;55.848;37.368;2022-08-18T15:43:50;10.68;;;4.32;;
44147;SDS011;29810;55.848;37.368;2022-08-18T15:46:51;6.80;;;4.32;;
44147;SDS011;29810;55.848;37.368;2022-08-18T15:49:53;10.05;;;5.00;;
44147;SDS011;29810;55.848;37.368;2022-08-18T15:52:58;6.80;;;5.57;;
44147;SDS011;29810;55.848;37.368;2022-08-18T15:56:11;11.60;;;5.65;;
44147;SDS011;29810;55.848;37.368;2022-08-18T15:59:17;7.80;;;6.43;;
44147;SDS011;29810;55.848;37.368;2022-08-18T16:02:19;12.18;;;6.93;;
44147;SDS011;29810;55.848;37.368;2022-08-18T16:05:21;10.32;;;6.18;;
44147;SDS011;29810;55.848;37.368;2022-08-18T16:08:24;9.05;;;6.78;;
44147;SDS011;29810;55.848;37.368;2022-08-18T16:11:29;9.75;;;6.65;;
44147;SDS011;29810;55.848;37.368;2022-08-18T16:14:31;10.35;;;6.07;;
44147;SDS011;29810;55.848;37.368;2022-08-18T16:17:32;9.02;;;5.93;;
44147;SDS011;29810;55.848;37.368;2022-08-18T16:20:34;8.07;;;5.62;;
44147;SDS011;29810;55.848;37.368;2022-08-18T16:23:38;7.75;;;4.93;;
44147;SDS011;29810;55.848;37.368;2022-08-18T16:26:40;10.38;;;5.20;;
44147;SDS011;29810;55.848;37.368;2022-08-18T16:29:42;7.50;;;5.57;;
44147;SDS011;29810;55.848;37.368;2022-08-18T16:32:43;7.72;;;5.78;;
44147;SDS011;29810;55.848;37.368;2022-08-18T16:35:47;8.15;;;4.93;;
44147;SDS011;29810;55.848;37.368;2022-08-18T16:38:52;9.73;;;4.90;;
44147;SDS011;29810;55.848;37.368;2022-08-18T16:41:55;9.38;;;5.07;;
44147;SDS011;29810;55.848;37.368;2022-08-18T16:44:56;8.70;;;5.18;;
44147;SDS011;29810;55.848;37.368;2022-08-18T16:47:58;12.20;;;5.80;;
44147;SDS011;29810;55.848;37.368;2022-08-18T16:51:00;10.13;;;5.20;;
44147;SDS011;29810;55.848;37.368;2022-08-18T16:54:03;10.32;;;5.10;;
44147;SDS011;29810;55.848;37.368;2022-08-18T16:57:05;13.68;;;5.12;;
44147;SDS011;29810;55.848;37.368;2022-08-18T17:00:07;8.55;;;4.82;;
44147;SDS011;29810;55.848;37.368;2022-08-18T17:03:28;10.00;;;5.05;;
44147;SDS011;29810;55.848;37.368;2022-08-18T17:06:49;11.48;;;4.90;;
44147;SDS011;29810;55.848;37.368;2022-08-18T17:09:51;10.43;;;4.80;;
44147;SDS011;29810;55.848;37.368;2022-08-18T17:12:55;11.85;;;5.45;;
44147;SDS011;29810;55.848;37.368;2022-08-18T17:15:57;8.55;;;4.70;;
44147;SDS011;29810;55.848;37.368;2022-08-18T17:18:59;7.87;;;4.70;;
44147;SDS011;29810;55.848;37.368;2022-08-18T17:22:02;11.70;;;5.22;;
44147;SDS011;29810;55.848;37.368;2022-08-18T17:25:05;10.15;;;5.12;;
44147;SDS011;29810;55.848;37.368;2022-08-18T17:28:11;8.63;;;5.03;;
44147;SDS011;29810;55.848;37.368;2022-08-18T17:31:13;11.32;;;5.10;;
44147;SDS011;29810;55.848;37.368;2022-08-18T17:34:15;7.47;;;5.22;;
44147;SDS011;29810;55.848;37.368;2022-08-18T17:37:23;8.15;;;5.30;;
44147;SDS011;29810;55.848;37.368;2022-08-18T17:40:44;8.75;;;5.35;;
44147;SDS011;29810;55.848;37.368;2022-08-18T17:43:53;8.63;;;5.45;;
44147;SDS011;29810;55.848;37.368;2022-08-18T17:46:56;7.17;;;5.10;;
44147;SDS011;29810;55.848;37.368;2022-08-18T17:50:05;8.85;;;5.43;;
44147;SDS011;29810;55.848;37.368;2022-08-18T17:53:37;11.05;;;5.37;;
44147;SDS011;29810;55.848;37.368;2022-08-18T17:56:44;8.98;;;5.37;;
44147;SDS011;29810;55.848;37.368;2022-08-18T18:03:01;12.68;;;5.65;;
44147;SDS011;29810;55.848;37.368;2022-08-18T18:06:13;11.65;;;5.90;;
44147;SDS011;29810;55.848;37.368;2022-08-18T18:12:24;8.18;;;5.57;;
44147;SDS011;29810;55.848;37.368;2022-08-18T18:15:30;9.27;;;5.97;;
44147;SDS011;29810;55.848;37.368;2022-08-18T18:18:37;10.20;;;6.18;;
44147;SDS011;29810;55.848;37.368;2022-08-18T18:21:43;12.15;;;6.22;;
44147;SDS011;29810;55.848;37.368;2022-08-18T18:24:52;10.38;;;6.10;;
44147;SDS011;29810;55.848;37.368;2022-08-18T18:27:59;13.95;;;5.85;;
44147;SDS011;29810;55.848;37.368;2022-08-18T18:31:17;10.10;;;6.03;;
44147;SDS011;29810;55.848;37.368;2022-08-18T18:34:33;14.85;;;6.55;;
44147;SDS011;29810;55.848;37.368;2022-08-18T18:41:26;13.35;;;6.60;;
44147;SDS011;29810;55.848;37.368;2022-08-18T18:44:29;14.75;;;6.53;;
44147;SDS011;29810;55.848;37.368;2022-08-18T18:47:44;12.20;;;6.57;;
44147;SDS011;29810;55.848;37.368;2022-08-18T18:51:01;12.25;;;6.28;;
44147;SDS011;29810;55.848;37.368;2022-08-18T19:01:11;13.85;;;6.78;;
44147;SDS011;29810;55.848;37.368;2022-08-18T19:04:39;10.48;;;6.03;;
44147;SDS011;29810;55.848;37.368;2022-08-18T19:07:58;13.38;;;6.07;;
44147;SDS011;29810;55.848;37.368;2022-08-18T19:14:15;12.43;;;5.97;;
44147;SDS011;29810;55.848;37.368;2022-08-18T19:20:45;12.82;;;6.90;;
44147;SDS011;29810;55.848;37.368;2022-08-18T19:24:25;13.05;;;6.82;;
44147;SDS011;29810;55.848;37.368;2022-08-18T19:27:28;14.40;;;7.18;;
44147;SDS011;29810;55.848;37.368;2022-08-18T19:30:38;12.73;;;7.93;;
44147;SDS011;29810;55.848;37.368;2022-08-18T19:33:44;15.05;;;7.55;;
44147;SDS011;29810;55.848;37.368;2022-08-18T19:40:23;13.27;;;6.85;;
44147;SDS011;29810;55.848;37.368;2022-08-18T19:43:40;10.65;;;6.80;;
44147;SDS011;29810;55.848;37.368;2022-08-18T19:53:39;12.07;;;6.78;;
44147;SDS011;29810;55.848;37.368;2022-08-18T19:56:58;11.20;;;7.12;;
44147;SDS011;29810;55.848;37.368;2022-08-18T20:00:14;13.93;;;7.00;;
44147;SDS011;29810;55.848;37.368;2022-08-18T20:13:18;13.18;;;7.18;;
44147;SDS011;29810;55.848;37.368;2022-08-18T20:16:33;13.60;;;7.00;;
44147;SDS011;29810;55.848;37.368;2022-08-18T20:19:47;14.93;;;7.07;;
44147;SDS011;29810;55.848;37.368;2022-08-18T20:23:31;12.63;;;7.12;;
44147;SDS011;29810;55.848;37.368;2022-08-18T20:29:44;11.95;;;7.22;;
44147;SDS011;29810;55.848;37.368;2022-08-18T20:39:44;13.98;;;8.60;;
44147;SDS011;29810;55.848;37.368;2022-08-18T20:42:48;12.07;;;8.15;;
44147;SDS011;29810;55.848;37.368;2022-08-18T20:45:51;19.35;;;8.65;;
44147;SDS011;29810;55.848;37.368;2022-08-18T20:49:09;14.30;;;8.73;;
44147;SDS011;29810;55.848;37.368;2022-08-18T20:58:54;12.25;;;8.90;;
44147;SDS011;29810;55.848;37.368;2022-08-18T21:02:05;17.48;;;8.73;;
44147;SDS011;29810;55.848;37.368;2022-08-18T21:05:25;13.15;;;8.10;;
44147;SDS011;29810;55.848;37.368;2022-08-18T21:08:32;13.73;;;8.90;;
44147;SDS011;29810;55.848;37.368;2022-08-18T21:14:45;13.30;;;8.90;;
44147;SDS011;29810;55.848;37.368;2022-08-18T21:18:04;14.07;;;8.27;;
44147;SDS011;29810;55.848;37.368;2022-08-18T21:21:12;12.73;;;8.45;;
44147;SDS011;29810;55.848;37.368;2022-08-18T21:24:42;16.90;;;8.18;;
44147;SDS011;29810;55.848;37.368;2022-08-18T21:27:50;12.88;;;7.93;;
44147;SDS011;29810;55.848;37.368;2022-08-18T21:30:58;13.02;;;7.95;;
44147;SDS011;29810;55.848;37.368;2022-08-18T21:34:10;14.93;;;7.47;;
44147;SDS011;29810;55.848;37.368;2022-08-18T21:37:15;13.77;;;8.07;;